Terminal Aerodrome Forecast
Issued by NWS Grand Forks, ND

Home | Current Version | Previous Version | Graphics & Text | Print | Product List | Glossary On
Versions: 1 2 3 4 5 6 7 8 9 10 11 12 13 14 15 16 17 18
000
FTUS43 KFGF 041742
TAFGFK
TAF
KGFK 041742Z 0418/0518 18010KT 4SM HZ SCT040
     FM042100 18012KT 5SM HZ BKN250
     FM050100 18008KT P6SM BKN150
     FM050400 16008KT P6SM VCTS SCT040CB BKN100=

USA.gov is the U.S. government's official web portal to all federal, state and local government web resources and services.